Time;durP1;ratioP1;P1;durP2;ratioP2;P2;SDS_P1;SDS_P2;PMS_P1;PMS_P2;Temp;Humidity;BMP_temperature;BMP_pressure;BME280_temperature;BME280_humidity;BME280_pressure;Samples;Min_cycle;Max_cycle;Signal;HPM_P1;HPM_P2
2022/04/02 00:00:17;;;;;;;12.43;10.57;;;;;;;5.75;57.75;96222.53;5111573;28;20653;-68
2022/04/02 00:02:45;;;;;;;11.73;10.43;;;;;;;5.80;57.87;96218.53;5111822;28;20203;-68
2022/04/02 00:05:11;;;;;;;11.60;10.40;;;;;;;5.81;57.62;96221.94;5112518;28;20477;-69
2022/04/02 00:07:37;;;;;;;12.37;10.77;;;;;;;5.83;57.71;96226.06;5112875;28;20450;-70
2022/04/02 00:10:03;;;;;;;13.10;11.67;;;;;;;5.82;57.30;96226.19;5113024;28;20181;-69
2022/04/02 00:12:29;;;;;;;11.40;10.20;;;;;;;5.72;57.56;96215.88;5115028;28;20415;-68
2022/04/02 00:14:55;;;;;;;12.83;11.53;;;;;;;5.71;57.67;96219.44;5114219;28;20888;-69
2022/04/02 00:17:20;;;;;;;13.20;11.80;;;;;;;5.62;58.04;96221.13;5113757;28;20726;-69
2022/04/02 00:19:46;;;;;;;14.67;12.57;;;;;;;5.74;58.48;96219.13;5114618;28;20297;-68
2022/04/02 00:22:11;;;;;;;14.77;12.27;;;;;;;5.83;57.90;96220.84;5114638;28;20188;-68
2022/04/02 00:24:37;;;;;;;13.00;11.60;;;;;;;5.88;57.95;96228.22;5116702;27;20442;-69
2022/04/02 00:27:02;;;;;;;13.53;11.63;;;;;;;5.89;58.05;96232.47;5115685;28;20212;-70
2022/04/02 00:29:28;;;;;;;13.77;12.23;;;;;;;5.80;57.30;96228.09;5115560;27;20169;-67
2022/04/02 00:31:54;;;;;;;13.00;11.70;;;;;;;5.84;57.70;96221.66;5111567;28;20556;-70
2022/04/02 00:34:19;;;;;;;14.77;12.53;;;;;;;5.75;56.68;96225.16;5113311;28;20192;-69
2022/04/02 00:36:45;;;;;;;13.80;12.40;;;;;;;5.67;57.59;96224.06;5112945;28;20938;-69
2022/04/02 00:39:10;;;;;;;15.00;13.33;;;;;;;5.62;57.78;96226.31;5112521;28;20232;-69
2022/04/02 00:41:36;;;;;;;15.00;13.00;;;;;;;5.64;58.54;96227.00;5103262;28;20192;-69
2022/04/02 00:44:17;;;;;;;14.93;13.37;;;;;;;5.73;58.62;96227.06;5115076;27;20577;-69
2022/04/02 00:46:43;;;;;;;15.77;14.03;;;;;;;5.68;57.98;96228.31;5110599;28;20431;-69
2022/04/02 00:49:11;;;;;;;15.10;13.47;;;;;;;5.81;58.19;96229.75;5113428;27;20419;-69
2022/04/02 00:51:41;;;;;;;15.07;12.60;;;;;;;5.85;57.89;96231.09;5112390;28;20460;-69
2022/04/02 00:54:09;;;;;;;17.60;15.30;;;;;;;5.97;57.89;96223.91;5111725;28;21037;-69
2022/04/02 00:56:35;;;;;;;15.63;13.93;;;;;;;6.02;57.31;96226.09;5111715;27;21221;-70
2022/04/02 00:59:01;;;;;;;16.47;14.40;;;;;;;5.95;57.50;96224.06;5110871;28;20454;-69
2022/04/02 01:01:26;;;;;;;16.43;14.27;;;;;;;6.00;57.41;96228.84;5111323;27;20441;-69
2022/04/02 01:03:52;;;;;;;16.73;14.00;;;;;;;5.97;57.29;96232.53;5111434;28;20195;-70
2022/04/02 01:06:19;;;;;;;17.30;13.77;;;;;;;5.91;57.06;96225.31;5110876;28;20203;-69
2022/04/02 01:08:44;;;;;;;15.50;13.73;;;;;;;5.83;57.62;96222.63;5104452;28;20180;-69
2022/04/02 01:11:10;;;;;;;16.60;14.40;;;;;;;5.85;57.49;96225.91;5111136;28;20407;-69
2022/04/02 01:13:35;;;;;;;15.70;13.83;;;;;;;5.87;57.78;96229.19;5110402;28;20242;-68
2022/04/02 01:16:01;;;;;;;20.27;15.03;;;;;;;5.87;57.28;96223.97;5110919;27;20196;-69
2022/04/02 01:18:27;;;;;;;15.37;13.00;;;;;;;5.87;57.36;96223.13;5111416;28;20180;-69
2022/04/02 01:20:53;;;;;;;15.10;13.50;;;;;;;5.92;57.26;96234.75;5110938;28;20542;-69
2022/04/02 01:23:19;;;;;;;16.83;13.73;;;;;;;5.85;57.21;96228.50;5108408;28;20505;-70
2022/04/02 01:25:45;;;;;;;16.53;14.73;;;;;;;5.76;57.01;96235.38;5113647;27;20442;-68
2022/04/02 01:28:10;;;;;;;16.80;14.33;;;;;;;5.79;57.53;96234.31;5113180;28;20581;-69
2022/04/02 01:30:36;;;;;;;19.10;15.00;;;;;;;5.71;57.64;96240.22;5109856;28;20192;-69
2022/04/02 01:33:01;;;;;;;16.50;14.70;;;;;;;5.73;57.88;96237.47;5110572;28;20180;-68
2022/04/02 01:35:27;;;;;;;19.20;14.97;;;;;;;5.84;57.71;96247.66;5110438;28;20201;-67
2022/04/02 01:37:52;;;;;;;17.27;14.10;;;;;;;5.83;57.76;96243.44;5104596;28;20242;-70
2022/04/02 01:40:19;;;;;;;15.63;13.33;;;;;;;5.86;56.97;96243.16;5110185;28;20197;-68
2022/04/02 01:42:45;;;;;;;17.33;14.47;;;;;;;5.90;57.24;96246.25;5106160;28;20173;-69
2022/04/02 01:45:13;;;;;;;18.60;14.17;;;;;;;5.93;57.41;96238.97;5117633;27;21032;-69
2022/04/02 01:47:38;;;;;;;16.70;13.93;;;;;;;5.95;57.10;96236.25;5117487;27;20446;-68
2022/04/02 01:50:06;;;;;;;16.33;13.73;;;;;;;6.02;57.03;96237.31;5117193;27;20974;-68
2022/04/02 01:52:31;;;;;;;16.60;14.80;;;;;;;6.03;56.82;96238.94;5117014;27;20180;-69
2022/04/02 01:54:56;;;;;;;14.30;12.80;;;;;;;6.01;57.13;96233.06;5118834;27;20491;-70
2022/04/02 01:57:22;;;;;;;16.10;13.53;;;;;;;5.91;56.45;96245.31;5116638;27;20667;-70
2022/04/02 01:59:49;;;;;;;16.00;13.50;;;;;;;5.87;56.67;96236.16;5117549;27;20274;-69
2022/04/02 02:02:16;;;;;;;16.70;14.20;;;;;;;5.93;57.31;96244.19;5117297;27;20199;-69
2022/04/02 02:04:41;;;;;;;16.30;14.03;;;;;;;5.81;57.48;96245.34;5115147;27;20446;-67
2022/04/02 02:07:07;;;;;;;19.83;14.37;;;;;;;5.81;57.32;96246.19;5116973;27;20411;-68
2022/04/02 02:09:33;;;;;;;15.40;13.57;;;;;;;5.83;57.42;96243.44;5116624;27;20169;-68
2022/04/02 02:12:00;;;;;;;17.33;13.30;;;;;;;5.79;57.03;96249.91;5114586;28;20200;-68
2022/04/02 02:14:26;;;;;;;15.63;13.20;;;;;;;5.83;57.25;96253.81;5117872;27;20779;-68
2022/04/02 02:16:51;;;;;;;16.30;13.73;;;;;;;5.92;57.07;96252.13;5119305;27;20422;-67
2022/04/02 02:19:17;;;;;;;17.27;13.27;;;;;;;5.96;57.26;96243.91;5120855;27;20976;-69
2022/04/02 02:21:42;;;;;;;12.40;11.13;;;;;;;5.85;57.03;96251.91;5117786;27;20192;-70
2022/04/02 02:24:08;;;;;;;18.10;13.40;;;;;;;5.83;57.70;96259.03;5116916;27;20653;-69
2022/04/02 02:26:34;;;;;;;16.03;12.10;;;;;;;5.84;57.19;96258.91;5116682;27;20282;-69
2022/04/02 02:29:00;;;;;;;14.30;12.03;;;;;;;5.87;57.06;96259.53;5117135;27;20181;-69
2022/04/02 02:31:26;;;;;;;15.47;11.73;;;;;;;5.92;57.04;96267.75;5117123;27;20421;-70
2022/04/02 02:36:35;;;;;;;15.50;11.50;;;;;;;5.81;57.08;96266.97;5116836;27;20227;-68
2022/04/02 02:39:01;;;;;;;13.37;11.97;;;;;;;5.89;56.94;96270.63;5118901;27;20513;-66
2022/04/02 02:41:26;;;;;;;14.40;12.20;;;;;;;5.92;56.60;96271.16;5119236;27;20180;-69
2022/04/02 02:43:52;;;;;;;14.07;11.57;;;;;;;5.97;56.68;96271.53;5116444;27;20181;-69
2022/04/02 02:46:17;;;;;;;17.50;11.50;;;;;;;5.94;57.04;96271.03;5116352;27;20201;-68
2022/04/02 02:48:44;;;;;;;19.23;12.20;;;;;;;5.87;56.39;96270.78;5117054;27;20215;-69
2022/04/02 02:51:09;;;;;;;14.83;11.50;;;;;;;5.85;56.93;96272.72;5117109;27;20204;-69
2022/04/02 02:53:35;;;;;;;15.20;11.20;;;;;;;5.83;56.96;96267.66;5116547;27;20419;-69
2022/04/02 02:56:00;;;;;;;11.83;10.60;;;;;;;5.81;57.04;96272.19;5113886;27;20205;-68
2022/04/02 02:58:26;;;;;;;12.53;11.13;;;;;;;5.82;57.22;96268.63;5115802;27;20184;-67
2022/04/02 03:00:51;;;;;;;15.80;11.30;;;;;;;5.93;57.21;96270.19;5113533;28;20295;-68
2022/04/02 03:03:17;;;;;;;12.77;10.97;;;;;;;5.88;56.73;96264.63;5113661;28;20634;-67
2022/04/02 03:05:42;;;;;;;16.27;11.33;;;;;;;5.90;56.66;96269.66;5105684;27;20693;-68
2022/04/02 03:08:08;;;;;;;14.53;10.60;;;;;;;5.62;56.96;96283.50;5109115;27;20177;-69
2022/04/02 03:10:34;;;;;;;14.03;10.80;;;;;;;5.60;56.93;96285.41;5113090;28;20210;-68
2022/04/02 03:12:59;;;;;;;13.00;10.50;;;;;;;5.63;57.59;96290.34;5115635;28;20181;-68
2022/04/02 03:15:25;;;;;;;12.10;10.73;;;;;;;5.60;56.91;96284.63;5117880;28;20449;-68
2022/04/02 03:17:52;;;;;;;12.73;11.17;;;;;;;5.53;56.86;96285.16;5114319;28;20184;-68
2022/04/02 03:20:21;;;;;;;14.13;10.77;;;;;;;5.64;57.87;96294.56;5111333;28;20201;-68
2022/04/02 03:22:47;;;;;;;11.00;9.80;;;;;;;5.33;57.21;96284.41;5113014;28;20518;-67
2022/04/02 03:25:15;;;;;;;12.50;10.83;;;;;;;5.38;57.71;96286.59;5113460;28;20431;-67
2022/04/02 03:27:43;;;;;;;15.63;11.60;;;;;;;5.36;57.18;96289.34;5111793;28;20450;-68
2022/04/02 03:30:10;;;;;;;12.80;10.50;;;;;;;5.33;57.29;96294.81;5112926;28;20414;-68
2022/04/02 03:32:36;;;;;;;15.60;10.60;;;;;;;5.39;57.31;96285.63;5113416;28;20419;-68
2022/04/02 03:35:02;;;;;;;14.70;10.43;;;;;;;5.47;57.66;96292.72;5112541;28;20454;-67
2022/04/02 03:37:30;;;;;;;10.47;9.37;;;;;;;5.50;58.14;96298.44;5110795;27;20520;-68
2022/04/02 03:39:55;;;;;;;15.30;10.70;;;;;;;5.50;57.58;96300.25;5112036;28;20446;-67
2022/04/02 03:42:21;;;;;;;22.23;10.20;;;;;;;5.40;57.64;96295.06;5114462;27;20423;-67
2022/04/02 03:44:46;;;;;;;10.70;9.40;;;;;;;5.35;57.55;96305.09;5112663;28;20200;-68
2022/04/02 03:47:12;;;;;;;15.40;9.90;;;;;;;5.27;57.68;96305.78;5113085;28;20206;-69
2022/04/02 03:49:39;;;;;;;14.07;9.43;;;;;;;5.30;57.98;96308.09;5112370;28;20216;-69
2022/04/02 03:52:05;;;;;;;18.23;9.70;;;;;;;5.19;57.50;96306.50;5111996;28;20181;-68
2022/04/02 03:54:30;;;;;;;15.87;9.97;;;;;;;5.23;58.09;96310.44;5111985;28;20430;-68
2022/04/02 03:56:56;;;;;;;19.03;8.77;;;;;;;5.08;58.15;96312.66;5113264;27;21104;-69
2022/04/02 03:59:21;;;;;;;11.23;8.67;;;;;;;5.07;57.90;96316.22;5105450;28;20197;-68
2022/04/02 04:01:47;;;;;;;16.57;9.77;;;;;;;5.14;58.62;96320.84;5112306;27;20272;-68
2022/04/02 04:04:13;;;;;;;12.00;8.73;;;;;;;5.13;58.29;96319.22;5112625;28;20177;-68
2022/04/02 04:06:38;;;;;;;13.17;8.17;;;;;;;5.19;58.13;96323.84;5115003;27;20312;-69
2022/04/02 04:09:04;;;;;;;14.73;8.70;;;;;;;5.02;58.56;96327.97;5111506;28;20676;-68
2022/04/02 04:11:30;;;;;;;13.20;8.30;;;;;;;4.97;57.96;96336.19;5112108;28;20234;-68
2022/04/02 04:13:56;;;;;;;12.53;8.30;;;;;;;4.95;58.28;96332.91;5113780;27;20274;-67
2022/04/02 04:16:22;;;;;;;11.80;7.47;;;;;;;5.00;58.71;96335.06;5116969;28;20570;-68
2022/04/02 04:18:48;;;;;;;16.63;8.50;;;;;;;5.03;58.65;96346.03;5113939;27;20510;-68
2022/04/02 04:21:14;;;;;;;11.73;8.77;;;;;;;5.12;57.98;96346.97;5111867;27;20425;-68
2022/04/02 04:23:40;;;;;;;10.83;9.50;;;;;;;5.10;58.46;96338.50;5112266;28;20284;-67
2022/04/02 04:26:06;;;;;;;13.70;9.50;;;;;;;5.06;58.24;96345.72;5111934;28;20495;-68
2022/04/02 04:28:31;;;;;;;10.27;7.83;;;;;;;5.05;57.71;96338.91;5113945;27;20990;-68
2022/04/02 04:30:57;;;;;;;18.83;8.70;;;;;;;5.13;58.17;96353.00;5117891;27;20181;-69
2022/04/02 04:33:22;;;;;;;13.80;8.03;;;;;;;5.05;57.57;96349.28;5111498;28;20268;-68
2022/04/02 04:35:48;;;;;;;12.87;7.50;;;;;;;5.10;57.62;96350.66;5112903;27;20300;-68
2022/04/02 04:38:13;;;;;;;12.27;8.53;;;;;;;5.07;57.80;96352.56;5113675;27;20284;-69
2022/04/02 04:40:39;;;;;;;20.40;9.10;;;;;;;5.06;57.62;96353.53;5111476;28;20600;-69
2022/04/02 04:43:04;;;;;;;15.10;8.20;;;;;;;5.11;58.28;96353.09;5111544;28;20172;-67
2022/04/02 04:45:30;;;;;;;12.40;9.00;;;;;;;5.13;58.34;96353.00;5111460;27;20676;-67
2022/04/02 04:47:55;;;;;;;13.00;8.73;;;;;;;5.19;58.29;96355.00;5117590;27;20188;-67
2022/04/02 04:50:21;;;;;;;16.97;9.00;;;;;;;5.20;57.86;96352.28;5113620;27;20599;-67
2022/04/02 04:52:46;;;;;;;10.10;8.70;;;;;;;5.16;58.30;96355.31;5111691;28;20709;-68
2022/04/02 04:55:12;;;;;;;14.00;8.30;;;;;;;5.26;57.84;96366.50;5113092;27;20197;-67
2022/04/02 04:57:37;;;;;;;11.37;9.10;;;;;;;5.26;58.17;96366.50;5103101;27;20176;-67
2022/04/02 05:00:06;;;;;;;9.47;8.53;;;;;;;5.10;58.31;96363.66;5116624;27;20217;-70
2022/04/02 05:02:32;;;;;;;11.33;9.00;;;;;;;5.08;58.10;96366.41;5111188;28;20181;-70
2022/04/02 05:04:57;;;;;;;10.57;8.33;;;;;;;4.95;58.35;96379.66;5111142;28;20951;-66
2022/04/02 05:07:23;;;;;;;13.87;9.67;;;;;;;4.90;58.56;96377.47;5110695;27;20180;-68
2022/04/02 05:09:49;;;;;;;10.93;9.73;;;;;;;4.98;58.33;96379.38;5110877;28;20184;-68
2022/04/02 05:12:15;;;;;;;12.93;8.60;;;;;;;5.07;58.67;96378.53;5111872;28;20790;-68
2022/04/02 05:14:41;;;;;;;13.57;9.07;;;;;;;5.04;58.64;96389.19;5107348;27;20195;-69
2022/04/02 05:17:06;;;;;;;10.80;8.70;;;;;;;5.07;58.01;96386.34;5111968;28;20434;-67
2022/04/02 05:19:32;;;;;;;11.03;8.40;;;;;;;4.99;57.67;96388.81;5111064;28;20204;-71
2022/04/02 05:21:57;;;;;;;12.10;10.80;;;;;;;5.02;58.01;96393.75;5112082;28;20193;-69
2022/04/02 05:24:23;;;;;;;12.43;8.97;;;;;;;5.04;58.22;96388.41;5120822;28;20233;-69
2022/04/02 05:26:51;;;;;;;11.10;8.97;;;;;;;5.08;57.85;96400.97;5122926;28;20565;-68
2022/04/02 05:29:17;;;;;;;14.70;9.33;;;;;;;5.18;57.59;96394.94;5122484;28;20209;-67
2022/04/02 05:31:42;;;;;;;11.50;8.90;;;;;;;5.16;57.38;96399.47;5117783;28;20447;-68
2022/04/02 05:34:09;;;;;;;9.40;8.40;;;;;;;5.12;57.26;96411.91;5116756;28;20268;-67
2022/04/02 05:36:35;;;;;;;13.57;9.00;;;;;;;5.11;57.42;96412.03;5121631;27;20556;-68
2022/04/02 05:39:01;;;;;;;9.47;8.47;;;;;;;5.18;57.72;96413.97;5114845;28;20876;-68
2022/04/02 05:41:26;;;;;;;10.07;9.03;;;;;;;5.21;57.67;96418.03;5114471;28;20517;-67
2022/04/02 05:43:52;;;;;;;11.50;8.77;;;;;;;5.16;57.37;96417.66;5114607;28;20181;-68
2022/04/02 05:46:17;;;;;;;10.10;8.57;;;;;;;5.21;57.34;96425.84;5111692;28;20576;-69
2022/04/02 05:48:43;;;;;;;10.63;8.03;;;;;;;5.19;57.91;96422.56;5111785;28;20269;-67
2022/04/02 05:51:09;;;;;;;9.23;8.20;;;;;;;5.13;57.92;96425.72;5112269;28;20610;-66
2022/04/02 05:53:35;;;;;;;9.53;7.70;;;;;;;5.10;57.63;96423.38;5111746;28;20185;-68
2022/04/02 05:56:01;;;;;;;9.37;7.87;;;;;;;5.09;57.73;96427.78;5113963;28;20450;-68
2022/04/02 05:58:27;;;;;;;9.00;8.10;;;;;;;5.19;57.89;96427.75;5111291;28;20184;-68
2022/04/02 06:00:53;;;;;;;8.47;7.67;;;;;;;5.19;57.79;96433.78;5096423;28;20467;-68
2022/04/02 06:03:20;;;;;;;8.80;7.90;;;;;;;5.22;57.59;96433.50;5107830;28;20499;-68
2022/04/02 06:05:46;;;;;;;9.17;8.27;;;;;;;5.19;57.68;96432.94;5110827;28;20578;-68
2022/04/02 06:08:12;;;;;;;8.20;7.40;;;;;;;5.20;57.25;96438.03;5093656;28;20966;-67
2022/04/02 06:10:37;;;;;;;8.83;7.93;;;;;;;5.20;57.65;96437.19;5109770;28;20503;-68
2022/04/02 06:13:03;;;;;;;8.10;7.30;;;;;;;5.17;57.80;96435.69;5111087;28;20557;-68
2022/04/02 06:15:28;;;;;;;8.67;7.57;;;;;;;5.13;57.67;96443.91;5110812;28;20201;-67
2022/04/02 06:17:54;;;;;;;7.50;6.80;;;;;;;5.01;57.63;96441.44;5111017;28;20219;-68
2022/04/02 06:20:19;;;;;;;9.17;8.20;;;;;;;5.02;58.04;96442.25;5110143;28;20733;-68
2022/04/02 06:22:45;;;;;;;11.30;8.00;;;;;;;5.02;57.51;96448.28;5111078;28;20522;-68
2022/04/02 06:25:10;;;;;;;8.37;7.47;;;;;;;5.03;58.13;96455.13;5110449;28;20291;-68
2022/04/02 06:27:47;;;;;;;7.63;6.83;;;;;;;5.00;57.63;96450.19;5110323;28;20237;-69
2022/04/02 06:30:14;;;;;;;7.97;7.17;;;;;;;4.98;58.10;96462.47;5112161;28;20205;-66
2022/04/02 06:32:40;;;;;;;7.67;6.87;;;;;;;5.10;58.22;96458.00;5114957;28;20876;-66
2022/04/02 06:35:06;;;;;;;7.93;7.13;;;;;;;5.00;57.84;96457.97;5114596;28;20466;-66
2022/04/02 06:37:34;;;;;;;7.87;7.07;;;;;;;4.96;58.41;96459.19;5114362;28;20427;-68
2022/04/02 06:40:00;;;;;;;10.93;7.90;;;;;;;4.90;58.14;96464.94;5113726;28;20454;-68
2022/04/02 06:42:25;;;;;;;8.00;7.03;;;;;;;4.84;58.92;96465.47;5114212;28;20906;-68
2022/04/02 06:44:50;;;;;;;11.27;7.77;;;;;;;4.76;58.24;96472.16;5113848;27;20253;-68
2022/04/02 06:47:16;;;;;;;8.00;7.20;;;;;;;4.97;58.90;96471.22;5114356;28;20280;-67
2022/04/02 06:49:41;;;;;;;8.83;7.40;;;;;;;5.01;58.27;96476.97;5114177;28;20178;-68
2022/04/02 06:52:07;;;;;;;9.67;7.63;;;;;;;4.85;58.42;96480.91;5114496;28;20183;-67
2022/04/02 06:54:33;;;;;;;7.97;7.17;;;;;;;4.81;59.00;96476.13;5112984;28;20184;-68
2022/04/02 06:56:59;;;;;;;9.63;7.50;;;;;;;4.75;58.22;96478.31;5115457;27;20181;-68
2022/04/02 06:59:24;;;;;;;8.33;7.37;;;;;;;4.90;59.06;96486.53;5113903;28;20446;-68
2022/04/02 07:01:50;;;;;;;7.80;7.00;;;;;;;5.04;59.14;96493.09;5113609;28;20414;-68
2022/04/02 07:04:15;;;;;;;7.67;6.97;;;;;;;5.13;58.30;96495.84;5113914;28;20556;-68
2022/04/02 07:06:44;;;;;;;8.33;7.27;;;;;;;5.18;58.39;96504.03;5105580;28;20197;-68
2022/04/02 07:09:11;;;;;;;8.10;7.30;;;;;;;5.15;57.77;96501.75;5114057;28;20269;-68
2022/04/02 07:11:36;;;;;;;8.53;7.00;;;;;;;4.95;58.22;96509.50;5114024;28;20527;-68
2022/04/02 07:14:02;;;;;;;7.40;6.70;;;;;;;4.87;57.71;96506.75;5113939;28;20450;-68
2022/04/02 07:16:28;;;;;;;10.03;6.60;;;;;;;4.86;58.34;96513.69;5113474;28;20276;-68
2022/04/02 07:18:55;;;;;;;9.30;7.10;;;;;;;4.89;58.58;96515.22;5089530;28;20181;-67
2022/04/02 07:21:22;;;;;;;8.07;7.27;;;;;;;4.85;58.42;96524.22;5110186;28;20979;-68
2022/04/02 07:23:47;;;;;;;9.23;7.57;;;;;;;4.96;59.34;96529.31;5099801;28;21138;-68
2022/04/02 07:26:13;;;;;;;10.57;7.00;;;;;;;4.88;58.16;96540.34;5092416;28;20436;-69
2022/04/02 07:28:40;;;;;;;8.57;7.70;;;;;;;4.59;58.59;96543.72;5100057;28;20216;-68
2022/04/02 07:31:05;;;;;;;10.57;7.17;;;;;;;4.71;59.10;96543.59;5096800;28;20183;-66
2022/04/02 07:33:31;;;;;;;9.33;7.83;;;;;;;4.64;59.11;96540.72;5093935;28;21002;-67
2022/04/02 07:36:19;;;;;;;9.23;7.63;;;;;;;4.69;59.07;96550.69;5113238;28;20207;-67
2022/04/02 07:39:15;;;;;;;8.87;7.40;;;;;;;4.59;59.35;96559.28;5091186;28;20189;-66
2022/04/02 07:41:50;;;;;;;13.00;8.10;;;;;;;4.57;58.95;96558.59;5094978;28;21065;-68
2022/04/02 07:44:21;;;;;;;9.93;8.30;;;;;;;4.71;59.15;96560.00;5113379;28;20847;-68
2022/04/02 07:46:48;;;;;;;12.57;8.93;;;;;;;4.71;59.72;96572.97;5142006;27;20473;-68
2022/04/02 07:49:18;;;;;;;10.43;8.10;;;;;;;4.75;59.14;96570.94;5116464;27;20421;-68
2022/04/02 07:51:49;;;;;;;10.60;8.17;;;;;;;4.76;58.86;96568.22;5105450;28;20803;-67
2022/04/02 07:54:17;;;;;;;15.00;7.93;;;;;;;4.66;59.10;96582.09;5100580;28;20423;-69
2022/04/02 07:56:46;;;;;;;8.70;7.80;;;;;;;4.68;58.47;96572.41;5098771;28;20448;-68
2022/04/02 07:59:14;;;;;;;8.50;7.20;;;;;;;4.76;57.68;96583.81;5091075;28;20455;-68
2022/04/02 08:01:40;;;;;;;7.60;6.80;;;;;;;4.79;58.43;96587.09;5112853;28;20772;-69
2022/04/02 08:04:06;;;;;;;9.77;8.10;;;;;;;4.93;58.82;96586.69;5096433;28;20453;-68
2022/04/02 08:06:32;;;;;;;9.20;7.53;;;;;;;4.97;58.36;96589.88;5093045;28;20447;-67
2022/04/02 08:09:01;;;;;;;7.43;6.73;;;;;;;4.86;57.73;96593.38;5097050;28;20186;-67
2022/04/02 08:11:27;;;;;;;14.30;7.27;;;;;;;4.84;58.95;96600.47;5091999;28;20458;-68
2022/04/02 08:13:54;;;;;;;8.47;7.20;;;;;;;5.02;59.29;96593.72;5098144;28;20427;-67
2022/04/02 08:16:20;;;;;;;13.10;8.00;;;;;;;4.83;58.34;96599.69;5098851;28;20206;-68
2022/04/02 08:18:47;;;;;;;7.57;6.87;;;;;;;4.81;58.23;96608.53;5112612;28;20510;-67
2022/04/02 08:21:13;;;;;;;9.40;7.60;;;;;;;4.86;58.39;96599.38;5112536;28;20495;-68
2022/04/02 08:23:39;;;;;;;8.60;7.80;;;;;;;4.87;58.06;96614.03;5112189;28;20435;-67
2022/04/02 08:26:31;;;;;;;9.40;7.40;;;;;;;4.81;58.59;96606.78;5112319;28;20492;-67
2022/04/02 08:29:08;;;;;;;8.10;6.83;;;;;;;4.71;58.66;96619.69;5090643;28;20598;-68
2022/04/02 08:32:04;;;;;;;11.30;7.07;;;;;;;4.89;58.69;96613.91;5111401;28;20454;-68
2022/04/02 08:34:42;;;;;;;7.70;6.83;;;;;;;4.89;58.06;96634.69;5111716;28;20902;-69
2022/04/02 08:37:29;;;;;;;9.23;8.10;;;;;;;4.80;57.89;96630.25;5095350;28;20832;-68
2022/04/02 08:40:25;;;;;;;10.03;7.33;;;;;;;4.95;57.88;96634.13;5111821;28;20465;-68
2022/04/02 08:43:25;;;;;;;8.27;6.90;;;;;;;4.90;57.16;96631.13;5097583;28;20516;-67
2022/04/02 08:46:27;;;;;;;9.50;6.70;;;;;;;4.75;57.71;96641.88;5104919;27;20435;-67
2022/04/02 08:49:10;;;;;;;7.93;7.10;;;;;;;4.83;58.71;96645.56;5105245;28;20506;-68
2022/04/02 08:51:43;;;;;;;12.63;7.60;;;;;;;4.79;57.51;96654.59;5111721;28;20427;-68
2022/04/02 08:54:28;;;;;;;8.83;7.23;;;;;;;4.94;58.50;96653.28;5096218;28;20837;-68
2022/04/02 08:57:11;;;;;;;8.77;7.50;;;;;;;5.00;57.97;96655.38;5111393;27;20513;-68
2022/04/02 08:59:38;;;;;;;9.50;7.60;;;;;;;4.99;57.28;96661.50;5111327;28;20485;-68
2022/04/02 09:02:28;;;;;;;11.80;7.93;;;;;;;4.98;57.26;96667.66;5112018;28;20993;-68
2022/04/02 09:05:18;;;;;;;10.43;8.30;;;;;;;4.92;56.74;96666.41;5110290;28;20447;-68
2022/04/02 09:08:02;;;;;;;8.60;7.80;;;;;;;4.99;56.70;96673.66;5103726;28;20422;-68
2022/04/02 09:10:44;;;;;;;10.77;8.93;;;;;;;5.00;57.32;96683.94;5112004;28;20416;-68
2022/04/02 09:13:48;;;;;;;8.83;7.90;;;;;;;4.89;56.65;96682.22;5112585;28;20434;-68
2022/04/02 09:16:26;;;;;;;10.63;9.53;;;;;;;4.74;56.73;96689.53;5085690;27;20905;-68
2022/04/02 09:19:12;;;;;;;10.23;9.23;;;;;;;4.92;57.77;96691.53;5119398;27;20433;-68
2022/04/02 09:21:49;;;;;;;10.23;9.03;;;;;;;5.04;56.84;96695.69;5112291;28;20937;-68
2022/04/02 09:24:43;;;;;;;10.80;8.60;;;;;;;5.09;56.92;96700.53;5112979;28;20789;-67
2022/04/02 09:27:39;;;;;;;11.20;9.87;;;;;;;5.14;57.42;96695.75;5111905;28;20643;-67
2022/04/02 09:30:34;;;;;;;18.63;11.90;;;;;;;5.09;57.14;96703.13;5106268;28;20415;-68
2022/04/02 09:33:29;;;;;;;16.63;12.63;;;;;;;5.15;56.66;96712.16;5089561;28;20426;-67
2022/04/02 09:36:42;;;;;;;15.23;10.67;;;;;;;5.04;56.06;96706.06;5122818;27;20827;-68
2022/04/02 09:39:14;;;;;;;15.97;9.97;;;;;;;4.92;55.75;96709.72;5043404;28;20800;-68
2022/04/02 09:41:48;;;;;;;10.93;8.00;;;;;;;4.91;56.52;96716.69;5048573;28;20417;-68
2022/04/02 09:44:16;;;;;;;9.57;8.60;;;;;;;5.00;56.32;96720.28;5048256;28;20437;-67
2022/04/02 09:46:53;;;;;;;12.27;9.93;;;;;;;5.08;56.37;96727.44;5048492;28;20969;-67
2022/04/02 09:49:33;;;;;;;14.37;9.23;;;;;;;5.03;56.45;96730.44;5055814;28;20432;-69
2022/04/02 09:52:07;;;;;;;12.37;8.97;;;;;;;5.21;56.96;96727.22;5056862;28;20456;-68
2022/04/02 09:54:48;;;;;;;9.73;8.73;;;;;;;5.22;56.24;96728.88;5047552;28;20449;-68
2022/04/02 09:57:19;;;;;;;11.50;9.07;;;;;;;5.19;54.98;96729.13;5065068;28;20440;-68
2022/04/02 10:00:03;;;;;;;17.17;9.73;;;;;;;5.01;55.34;96729.72;5031095;28;20600;-68
2022/04/02 10:02:57;;;;;;;10.83;8.87;;;;;;;4.91;55.85;96731.47;5047505;28;20425;-68
2022/04/02 10:05:31;;;;;;;12.43;9.73;;;;;;;4.95;55.34;96735.44;5050235;28;20863;-67
2022/04/02 10:08:19;;;;;;;14.53;10.27;;;;;;;4.98;55.61;96737.78;5068572;28;20426;-68
2022/04/02 10:10:46;;;;;;;10.47;9.37;;;;;;;5.05;55.85;96740.69;5103385;28;20467;-68
2022/04/02 10:13:12;;;;;;;11.33;10.10;;;;;;;4.90;56.16;96743.59;5097297;28;20415;-67
2022/04/02 10:15:41;;;;;;;12.30;9.40;;;;;;;4.98;55.96;96742.16;5104351;27;20524;-67
2022/04/02 10:18:10;;;;;;;11.20;10.00;;;;;;;5.04;55.78;96745.03;5115069;28;20433;-68
2022/04/02 10:20:37;;;;;;;15.03;10.67;;;;;;;5.11;55.74;96747.13;5114313;28;20661;-68
2022/04/02 10:23:21;;;;;;;10.43;9.00;;;;;;;5.26;55.63;96752.81;5098878;28;20424;-68
2022/04/02 10:26:07;;;;;;;11.67;9.87;;;;;;;5.23;55.31;96746.09;5107151;28;20438;-68
2022/04/02 10:28:36;;;;;;;12.50;9.97;;;;;;;4.76;55.56;96749.97;5114800;28;20421;-68
2022/04/02 10:31:05;;;;;;;11.37;9.30;;;;;;;4.91;55.56;96758.25;5098512;28;20916;-67
2022/04/02 10:33:36;;;;;;;12.57;10.47;;;;;;;5.04;56.82;96760.63;5113607;28;20491;-66
2022/04/02 10:36:03;;;;;;;17.97;10.47;;;;;;;5.10;55.85;96766.28;5115670;27;20556;-68
2022/04/02 10:38:37;;;;;;;10.83;9.40;;;;;;;4.90;56.19;96769.56;5111477;27;20775;-67
2022/04/02 10:41:12;;;;;;;16.83;9.50;;;;;;;5.05;56.41;96764.88;5115095;28;20462;-68
2022/04/02 10:43:51;;;;;;;11.80;9.50;;;;;;;5.14;56.14;96770.28;5096162;28;20434;-68
2022/04/02 10:46:19;;;;;;;12.93;9.07;;;;;;;5.29;56.07;96766.38;5104138;27;20451;-69
2022/04/02 10:48:55;;;;;;;11.97;9.27;;;;;;;5.30;55.60;96773.19;5114180;28;20462;-68
2022/04/02 10:51:23;;;;;;;11.27;9.97;;;;;;;5.35;55.24;96770.22;5122952;27;20775;-69
2022/04/02 10:53:54;;;;;;;13.10;9.70;;;;;;;5.24;55.44;96771.13;5117461;27;20419;-69
2022/04/02 10:56:27;;;;;;;12.07;9.00;;;;;;;5.13;55.55;96769.44;5112663;27;20452;-69
2022/04/02 10:58:54;;;;;;;10.13;9.13;;;;;;;5.18;56.30;96769.03;5113978;28;20431;-69
2022/04/02 11:01:22;;;;;;;12.30;9.20;;;;;;;5.08;55.56;96769.00;5114232;27;20488;-68
2022/04/02 11:03:55;;;;;;;10.57;9.47;;;;;;;5.21;56.11;96779.19;5118589;27;20422;-68
2022/04/02 11:06:57;;;;;;;10.83;8.90;;;;;;;5.17;55.34;96778.63;5117175;27;20442;-69
2022/04/02 11:09:24;;;;;;;11.50;10.30;;;;;;;5.18;55.56;96788.06;5122513;27;20429;-69
2022/04/02 11:11:51;;;;;;;10.97;8.90;;;;;;;5.20;55.37;96787.91;5114461;28;20434;-69
2022/04/02 11:14:20;;;;;;;11.23;9.57;;;;;;;5.25;55.48;96785.78;5113737;27;20427;-69
2022/04/02 11:16:46;;;;;;;14.10;10.53;;;;;;;5.21;55.43;96792.16;5112858;28;20447;-69
2022/04/02 11:22:06;;;;;;;13.47;10.77;;;;;;;5.13;55.31;96786.81;5107584;28;20464;-69
2022/04/02 11:24:39;;;;;;;11.23;9.23;;;;;;;5.19;55.79;96797.50;5116379;27;20475;-70
2022/04/02 11:27:05;;;;;;;11.80;10.20;;;;;;;5.33;55.58;96798.94;5102539;27;20426;-70
2022/04/02 11:29:33;;;;;;;12.50;10.00;;;;;;;5.32;55.21;96802.47;5113686;27;20476;-69
2022/04/02 11:32:01;;;;;;;11.57;9.77;;;;;;;5.36;54.82;96810.84;5119322;27;20930;-69
2022/04/02 11:34:28;;;;;;;12.23;10.20;;;;;;;5.29;55.10;96805.38;5113543;28;20927;-69
2022/04/02 11:36:59;;;;;;;13.10;10.07;;;;;;;5.36;54.91;96810.84;5098515;28;20439;-70
2022/04/02 11:39:41;;;;;;;14.70;10.97;;;;;;;5.34;55.05;96816.19;5112218;28;20455;-69
2022/04/02 11:42:07;;;;;;;13.03;10.43;;;;;;;5.49;54.88;96816.66;5113646;27;20468;-69
2022/04/02 11:44:37;;;;;;;16.70;11.87;;;;;;;5.46;54.43;96821.28;5112756;27;20414;-69
2022/04/02 11:47:06;;;;;;;11.40;10.20;;;;;;;5.48;55.22;96822.78;5113299;28;20817;-68